Time;durP1;ratioP1;P1;durP2;ratioP2;P2;SDS_P1;SDS_P2;PMS_P1;PMS_P2;Temp;Humidity;BMP_temperature;BMP_pressure;BME280_temperature;BME280_humidity;BME280_pressure;Samples;Min_cycle;Max_cycle;Signal;HPM_P1;HPM_P2
2023/09/29 00:00:17;;;;;;;8.30;5.05;;;14.00;99.90;;;;;;4997331;28;20084;-85
2023/09/29 00:02:45;;;;;;;7.43;5.05;;;13.90;99.90;;;;;;5006938;28;20034;-84
2023/09/29 00:05:11;;;;;;;8.43;4.93;;;13.90;99.90;;;;;;5011162;28;20164;-84
2023/09/29 00:07:37;;;;;;;8.43;4.75;;;13.90;99.90;;;;;;5013216;28;20931;-85
2023/09/29 00:10:08;;;;;;;10.98;5.53;;;13.80;99.90;;;;;;5005151;28;20120;-84
2023/09/29 00:12:37;;;;;;;6.85;5.13;;;13.70;99.90;;;;;;5013169;28;20377;-84
2023/09/29 00:15:04;;;;;;;10.30;5.93;;;13.70;99.90;;;;;;5005130;28;20511;-84
2023/09/29 00:17:31;;;;;;;12.48;7.07;;;13.60;99.90;;;;;;5012677;28;20393;-84
2023/09/29 00:19:57;;;;;;;12.20;6.88;;;13.60;99.90;;;;;;4997900;28;20026;-84
2023/09/29 00:22:23;;;;;;;12.43;6.90;;;13.70;99.90;;;;;;5012666;28;20440;-84
2023/09/29 00:25:16;;;;;;;10.43;6.43;;;13.80;99.90;;;;;;5000750;28;20029;-84
2023/09/29 00:27:42;;;;;;;7.82;5.97;;;14.00;99.90;;;;;;5012300;28;20121;-84
2023/09/29 00:30:09;;;;;;;9.93;6.30;;;14.20;99.90;;;;;;4999781;28;20493;-84
2023/09/29 00:32:35;;;;;;;8.73;5.97;;;14.20;99.90;;;;;;5002468;28;20053;-84
2023/09/29 00:35:01;;;;;;;9.90;5.05;;;14.10;99.90;;;;;;5012587;28;20933;-84
2023/09/29 00:37:27;;;;;;;8.82;5.63;;;14.00;99.90;;;;;;5003934;28;20029;-85
2023/09/29 00:39:55;;;;;;;13.27;6.88;;;13.90;99.90;;;;;;5002067;28;20025;-84
2023/09/29 00:42:21;;;;;;;10.18;6.35;;;13.80;99.90;;;;;;5007118;28;20053;-84
2023/09/29 00:44:47;;;;;;;12.32;7.22;;;13.70;99.90;;;;;;4994095;28;20140;-84
2023/09/29 00:47:15;;;;;;;13.15;6.95;;;13.50;99.90;;;;;;5000941;28;20037;-84
2023/09/29 00:49:42;;;;;;;9.63;6.95;;;13.40;99.90;;;;;;5011918;28;20142;-85
2023/09/29 00:52:09;;;;;;;11.50;7.55;;;13.40;99.90;;;;;;5002430;28;20039;-84
2023/09/29 00:54:36;;;;;;;9.90;7.13;;;13.30;99.90;;;;;;5010924;28;20025;-84
2023/09/29 00:57:05;;;;;;;13.75;8.70;;;13.20;99.90;;;;;;5014754;28;20116;-84
2023/09/29 00:59:31;;;;;;;11.98;7.95;;;13.20;99.90;;;;;;5008204;28;20109;-84
2023/09/29 01:01:58;;;;;;;12.35;7.60;;;13.10;99.90;;;;;;5024046;28;20139;-84
2023/09/29 01:04:24;;;;;;;12.85;8.20;;;13.00;99.90;;;;;;5011490;28;20030;-84
2023/09/29 01:06:50;;;;;;;12.52;7.60;;;12.90;99.90;;;;;;4996246;28;20033;-84
2023/09/29 01:09:16;;;;;;;10.93;8.02;;;12.90;99.90;;;;;;5027314;28;20036;-84
2023/09/29 01:11:46;;;;;;;12.55;7.50;;;12.90;99.90;;;;;;5002362;28;20469;-84
2023/09/29 01:14:12;;;;;;;15.48;7.78;;;12.80;99.90;;;;;;5011301;28;20038;-84
2023/09/29 01:16:41;;;;;;;12.50;8.48;;;12.70;99.90;;;;;;5009668;28;20025;-84
2023/09/29 01:19:11;;;;;;;19.30;8.80;;;12.60;99.90;;;;;;5004837;28;20056;-84
2023/09/29 01:21:44;;;;;;;13.65;9.10;;;12.60;99.90;;;;;;5010722;28;20498;-84
2023/09/29 01:24:10;;;;;;;13.00;9.02;;;12.60;99.90;;;;;;5012346;28;20026;-84
2023/09/29 01:26:36;;;;;;;12.98;8.68;;;12.60;99.90;;;;;;5006939;28;20037;-85
2023/09/29 01:29:03;;;;;;;13.32;8.45;;;12.60;99.90;;;;;;5016230;28;20380;-85
2023/09/29 01:31:34;;;;;;;11.77;8.90;;;12.50;99.90;;;;;;5008618;28;20036;-84
2023/09/29 01:34:01;;;;;;;12.60;9.30;;;12.50;99.90;;;;;;5019327;28;20045;-84
2023/09/29 01:36:27;;;;;;;16.30;8.95;;;12.40;99.90;;;;;;5008485;28;20186;-84
2023/09/29 01:38:53;;;;;;;15.38;8.38;;;12.40;99.90;;;;;;5012055;28;20106;-84
2023/09/29 01:41:20;;;;;;;11.90;8.65;;;12.40;99.90;;;;;;4996774;28;20022;-84
2023/09/29 01:43:46;;;;;;;14.57;8.35;;;12.40;99.90;;;;;;4998530;28;20021;-84
2023/09/29 01:46:15;;;;;;;15.82;9.27;;;12.30;99.90;;;;;;4998929;28;20029;-84
2023/09/29 01:48:41;;;;;;;12.40;7.85;;;12.40;99.90;;;;;;5005780;28;20034;-84
2023/09/29 01:51:07;;;;;;;19.05;9.40;;;12.40;99.90;;;;;;5011891;28;20069;-85
2023/09/29 01:53:33;;;;;;;11.93;7.30;;;12.50;99.90;;;;;;5015682;28;20026;-84
2023/09/29 01:55:59;;;;;;;13.02;9.05;;;12.40;99.90;;;;;;5011353;28;20056;-84
2023/09/29 01:58:29;;;;;;;12.50;9.32;;;12.40;99.90;;;;;;4999336;28;20541;-84
2023/09/29 02:00:55;;;;;;;14.30;10.05;;;12.40;99.90;;;;;;4997956;28;20450;-84
2023/09/29 02:03:21;;;;;;;15.18;11.45;;;12.40;99.90;;;;;;4995064;28;20057;-84
2023/09/29 02:05:47;;;;;;;16.55;11.73;;;12.30;99.90;;;;;;5011625;28;20029;-84
2023/09/29 02:08:13;;;;;;;19.60;10.20;;;12.40;99.90;;;;;;5004646;28;20033;-84
2023/09/29 02:10:39;;;;;;;20.83;10.35;;;12.50;99.90;;;;;;5004455;28;20033;-85
2023/09/29 02:13:04;;;;;;;16.48;10.15;;;12.50;99.90;;;;;;4985862;28;20116;-84
2023/09/29 02:15:34;;;;;;;14.30;9.57;;;12.40;99.90;;;;;;4996667;28;20741;-84
2023/09/29 02:18:04;;;;;;;16.80;10.75;;;12.40;99.90;;;;;;5006217;28;20029;-84
2023/09/29 02:20:30;;;;;;;15.13;9.13;;;12.30;99.90;;;;;;5010022;28;20025;-85
2023/09/29 02:23:00;;;;;;;14.30;8.98;;;12.30;99.90;;;;;;5017320;28;20029;-83
2023/09/29 02:25:26;;;;;;;16.25;9.82;;;12.20;99.90;;;;;;5005203;28;20037;-83
2023/09/29 02:27:54;;;;;;;18.08;10.73;;;12.20;99.90;;;;;;5000827;28;20029;-83
2023/09/29 02:30:20;;;;;;;16.60;10.23;;;12.20;99.90;;;;;;5016555;28;20109;-83
2023/09/29 02:32:46;;;;;;;19.17;10.30;;;12.30;99.90;;;;;;4992984;28;20384;-83
2023/09/29 02:35:12;;;;;;;17.90;8.68;;;12.30;99.90;;;;;;5004162;28;20017;-83
2023/09/29 02:37:39;;;;;;;13.55;9.15;;;12.30;99.90;;;;;;5007692;28;20563;-83
2023/09/29 02:40:14;;;;;;;15.27;9.57;;;12.20;99.90;;;;;;5013171;28;20112;-83
2023/09/29 02:42:41;;;;;;;15.35;8.38;;;12.20;99.90;;;;;;5008215;28;20091;-83
2023/09/29 02:45:08;;;;;;;15.48;9.77;;;12.10;99.90;;;;;;5021252;28;20083;-83
2023/09/29 02:47:35;;;;;;;12.95;9.15;;;12.10;99.90;;;;;;5005684;28;20539;-83
2023/09/29 02:50:00;;;;;;;13.57;8.75;;;12.10;99.90;;;;;;5017135;28;20025;-83
2023/09/29 02:52:30;;;;;;;12.32;8.93;;;12.10;99.90;;;;;;5006612;28;20457;-83
2023/09/29 02:54:55;;;;;;;14.05;9.25;;;12.10;99.90;;;;;;5013356;28;20030;-83
2023/09/29 02:57:22;;;;;;;18.15;9.63;;;12.10;99.90;;;;;;4998628;28;20037;-84
2023/09/29 02:59:48;;;;;;;16.65;9.38;;;12.00;99.90;;;;;;5024435;28;20057;-85
2023/09/29 03:02:14;;;;;;;14.18;9.38;;;12.00;99.90;;;;;;4998062;28;20034;-83
2023/09/29 03:04:40;;;;;;;12.65;8.95;;;11.90;99.90;;;;;;5004680;28;20535;-83
2023/09/29 03:07:09;;;;;;;18.40;11.05;;;11.90;99.90;;;;;;5018379;28;20037;-83
2023/09/29 03:09:38;;;;;;;14.95;10.45;;;12.00;99.90;;;;;;5001548;28;20021;-83
2023/09/29 03:12:04;;;;;;;15.45;10.65;;;12.00;99.90;;;;;;5013606;28;20053;-83
2023/09/29 03:14:30;;;;;;;15.05;10.43;;;12.10;99.90;;;;;;5007686;28;20501;-82
2023/09/29 03:17:00;;;;;;;18.00;11.40;;;12.10;99.90;;;;;;4986797;28;20064;-83
2023/09/29 03:19:27;;;;;;;19.48;11.57;;;12.20;99.90;;;;;;4998081;28;20030;-83
2023/09/29 03:22:14;;;;;;;20.00;14.32;;;12.40;99.90;;;;;;4993961;28;20116;-83
2023/09/29 03:24:40;;;;;;;18.05;13.40;;;12.60;99.90;;;;;;4997515;28;20540;-83
2023/09/29 03:27:06;;;;;;;18.92;12.70;;;12.70;99.90;;;;;;4993527;28;20057;-83
2023/09/29 03:29:35;;;;;;;16.55;11.70;;;12.80;99.90;;;;;;4991023;28;20026;-83
2023/09/29 03:32:01;;;;;;;17.35;11.75;;;12.90;99.90;;;;;;4996984;28;20056;-83
2023/09/29 03:34:27;;;;;;;18.58;10.77;;;13.00;99.90;;;;;;5014722;28;20140;-83
2023/09/29 03:36:52;;;;;;;17.85;11.07;;;13.10;99.90;;;;;;4985347;28;20033;-83
2023/09/29 03:39:18;;;;;;;15.48;10.70;;;13.20;99.90;;;;;;4990540;28;20040;-83
2023/09/29 03:41:45;;;;;;;15.13;10.55;;;13.30;99.90;;;;;;5012849;28;20026;-84
2023/09/29 03:44:12;;;;;;;16.98;10.45;;;13.40;99.90;;;;;;4985053;28;20037;-84
2023/09/29 03:46:38;;;;;;;19.65;10.68;;;13.50;99.90;;;;;;5019801;28;20045;-84
2023/09/29 03:49:10;;;;;;;16.15;10.05;;;13.50;99.90;;;;;;4997401;28;20067;-84
2023/09/29 03:51:36;;;;;;;14.05;10.30;;;13.70;99.90;;;;;;5000371;28;20709;-84
2023/09/29 03:54:02;;;;;;;13.15;8.75;;;13.70;99.90;;;;;;5011958;28;20025;-84
2023/09/29 03:56:27;;;;;;;14.75;9.60;;;13.70;99.90;;;;;;5013735;28;20033;-84
2023/09/29 03:58:53;;;;;;;12.57;9.20;;;13.80;99.90;;;;;;5017871;28;20037;-83
2023/09/29 04:01:19;;;;;;;16.35;9.25;;;13.80;99.90;;;;;;5005376;28;20076;-84
2023/09/29 04:03:45;;;;;;;12.23;9.13;;;13.90;99.90;;;;;;5010516;28;20029;-84
2023/09/29 04:06:11;;;;;;;18.27;9.88;;;13.90;99.90;;;;;;5027566;28;20021;-85
2023/09/29 04:08:37;;;;;;;18.10;8.82;;;13.90;99.90;;;;;;5003426;28;20025;-84
2023/09/29 04:11:03;;;;;;;18.27;9.38;;;14.00;99.90;;;;;;5017405;28;20021;-84
2023/09/29 04:13:29;;;;;;;16.10;8.52;;;14.00;99.90;;;;;;5000601;28;20277;-83
2023/09/29 04:15:55;;;;;;;13.68;8.07;;;14.00;99.90;;;;;;4999115;28;20105;-83
2023/09/29 04:18:21;;;;;;;11.20;7.20;;;14.00;99.90;;;;;;4987063;28;20052;-83
2023/09/29 04:20:46;;;;;;;16.45;8.50;;;14.00;99.90;;;;;;5020170;28;20414;-83
2023/09/29 04:23:12;;;;;;;13.27;8.45;;;14.00;99.90;;;;;;4999696;28;20064;-84
2023/09/29 04:25:38;;;;;;;15.73;9.38;;;14.00;99.90;;;;;;5021746;28;20025;-83
2023/09/29 04:28:04;;;;;;;12.70;8.23;;;14.00;99.90;;;;;;5014265;28;20067;-83
2023/09/29 04:30:30;;;;;;;18.35;8.60;;;14.00;99.90;;;;;;5020259;28;20032;-83
2023/09/29 04:32:56;;;;;;;16.65;9.48;;;14.00;99.90;;;;;;5008005;28;20057;-83
2023/09/29 04:35:21;;;;;;;10.05;7.28;;;14.00;99.90;;;;;;5012881;28;20064;-83
2023/09/29 04:37:49;;;;;;;10.52;7.03;;;14.00;99.90;;;;;;5002818;28;20030;-83
2023/09/29 04:40:16;;;;;;;19.45;7.68;;;14.10;99.90;;;;;;5013905;28;20542;-83
2023/09/29 04:42:41;;;;;;;10.95;7.28;;;14.10;99.90;;;;;;5016208;28;20034;-84
2023/09/29 04:45:25;;;;;;;10.98;6.97;;;14.10;99.90;;;;;;5021633;28;20029;-84
2023/09/29 04:47:52;;;;;;;11.00;6.80;;;14.10;99.90;;;;;;5029032;28;20022;-83
2023/09/29 04:50:18;;;;;;;14.63;7.05;;;14.10;99.90;;;;;;5024012;28;20033;-84
2023/09/29 04:52:43;;;;;;;17.40;7.68;;;14.10;99.90;;;;;;5016045;28;20447;-83
2023/09/29 04:55:09;;;;;;;12.05;6.90;;;14.10;99.90;;;;;;5007722;28;20116;-83
2023/09/29 04:57:35;;;;;;;12.80;7.03;;;14.10;99.90;;;;;;4996173;28;20469;-83
2023/09/29 05:00:01;;;;;;;12.55;8.38;;;14.10;99.90;;;;;;5016016;28;20143;-83
2023/09/29 05:02:29;;;;;;;11.98;7.68;;;14.10;99.90;;;;;;5012023;28;20369;-83
2023/09/29 05:04:56;;;;;;;12.25;6.72;;;14.10;99.90;;;;;;5021458;28;20045;-83
2023/09/29 05:07:21;;;;;;;11.32;7.22;;;14.10;99.90;;;;;;5011512;28;20033;-83
2023/09/29 05:09:47;;;;;;;13.57;8.27;;;14.10;99.90;;;;;;5008472;28;20037;-83
2023/09/29 05:12:13;;;;;;;16.10;8.73;;;14.20;99.90;;;;;;5015379;28;20021;-83
2023/09/29 05:14:38;;;;;;;16.48;8.48;;;14.20;99.90;;;;;;5006789;28;20489;-83
2023/09/29 05:17:04;;;;;;;13.60;8.38;;;14.20;99.90;;;;;;5010682;28;20098;-84
2023/09/29 05:19:36;;;;;;;12.85;7.30;;;14.20;99.90;;;;;;5019187;28;20397;-83
2023/09/29 05:22:01;;;;;;;12.73;7.68;;;14.30;99.90;;;;;;5013551;28;20045;-84
2023/09/29 05:24:27;;;;;;;13.50;9.00;;;14.30;99.90;;;;;;4993728;28;20120;-84
2023/09/29 05:26:53;;;;;;;11.95;8.18;;;14.40;99.90;;;;;;5009403;28;20120;-83
2023/09/29 05:29:21;;;;;;;11.70;7.97;;;14.40;99.90;;;;;;5021587;28;20103;-84
2023/09/29 05:31:46;;;;;;;13.50;7.90;;;14.40;99.90;;;;;;5008415;28;20087;-83
2023/09/29 05:34:12;;;;;;;13.85;7.85;;;14.50;99.90;;;;;;5006902;28;20034;-83
2023/09/29 05:36:38;;;;;;;11.68;8.32;;;14.50;99.90;;;;;;4997705;28;20034;-83
2023/09/29 05:39:04;;;;;;;12.98;8.80;;;14.60;99.90;;;;;;5015346;28;20028;-84
2023/09/29 05:41:31;;;;;;;10.88;8.38;;;14.60;99.90;;;;;;5002302;28;20072;-83
2023/09/29 05:43:56;;;;;;;15.05;8.82;;;14.70;99.90;;;;;;5015559;28;20494;-83
2023/09/29 05:46:22;;;;;;;16.45;9.50;;;14.80;99.90;;;;;;5020728;28;20026;-84
2023/09/29 05:48:48;;;;;;;16.83;8.73;;;14.90;99.90;;;;;;5007763;28;20080;-83
2023/09/29 05:51:13;;;;;;;12.90;7.97;;;15.00;99.90;;;;;;5014387;28;20034;-84
2023/09/29 05:53:39;;;;;;;10.73;7.85;;;15.20;99.90;;;;;;5017789;28;20112;-84
2023/09/29 05:56:08;;;;;;;12.23;8.95;;;15.30;99.90;;;;;;5005809;28;20030;-84
2023/09/29 05:58:35;;;;;;;13.40;8.63;;;15.30;99.90;;;;;;5001910;28;20370;-84
2023/09/29 06:01:13;;;;;;;18.88;8.15;;;15.40;99.90;;;;;;5006302;28;20124;-84
2023/09/29 06:03:40;;;;;;;11.82;6.70;;;15.60;99.90;;;;;;5013555;28;20051;-82
2023/09/29 06:06:09;;;;;;;15.50;7.65;;;15.70;99.90;;;;;;5003660;28;20014;-84
2023/09/29 06:08:36;;;;;;;18.20;6.80;;;15.80;99.90;;;;;;5002456;28;20547;-84
2023/09/29 06:11:03;;;;;;;12.32;6.63;;;15.90;99.90;;;;;;5008745;28;20032;-84
2023/09/29 06:13:29;;;;;;;12.75;6.95;;;16.10;99.90;;;;;;5013497;28;20432;-84
2023/09/29 06:15:56;;;;;;;14.15;6.82;;;16.20;99.90;;;;;;4994002;28;20073;-84
2023/09/29 06:18:22;;;;;;;14.98;7.22;;;16.30;99.90;;;;;;5000628;28;20171;-83
2023/09/29 06:20:47;;;;;;;9.73;6.78;;;16.40;99.90;;;;;;5010510;28;20112;-83
2023/09/29 06:23:14;;;;;;;15.20;6.95;;;16.60;99.90;;;;;;4991703;28;20156;-84
2023/09/29 06:25:40;;;;;;;14.55;7.30;;;16.70;99.90;;;;;;5009173;28;20029;-83
2023/09/29 06:28:06;;;;;;;13.57;6.68;;;16.80;99.90;;;;;;5011717;28;20045;-84
2023/09/29 06:30:32;;;;;;;14.90;6.57;;;16.80;99.90;;;;;;5009592;28;20125;-84
2023/09/29 06:32:57;;;;;;;12.68;6.78;;;16.80;99.90;;;;;;4996332;28;20037;-83
2023/09/29 06:35:23;;;;;;;13.80;7.22;;;16.70;99.90;;;;;;5005624;28;20033;-83
2023/09/29 06:37:48;;;;;;;14.63;6.25;;;16.70;99.90;;;;;;5002865;28;20366;-83
2023/09/29 06:40:15;;;;;;;19.10;7.07;;;16.80;99.90;;;;;;5010154;28;20030;-83
2023/09/29 06:42:41;;;;;;;13.90;7.38;;;16.90;99.90;;;;;;5012399;28;20526;-83
2023/09/29 06:45:07;;;;;;;10.02;5.97;;;17.00;99.90;;;;;;5027080;28;20124;-83
2023/09/29 06:47:34;;;;;;;13.40;6.40;;;17.20;99.90;;;;;;4992731;28;20416;-84
2023/09/29 06:50:00;;;;;;;12.23;6.18;;;17.40;99.90;;;;;;5008816;28;20038;-83
2023/09/29 06:52:26;;;;;;;10.93;6.57;;;17.50;99.90;;;;;;5024576;28;20322;-83
2023/09/29 06:54:52;;;;;;;13.57;5.85;;;17.60;99.90;;;;;;5030305;28;20035;-84
2023/09/29 06:57:18;;;;;;;16.05;6.80;;;17.70;99.90;;;;;;5004733;28;20064;-83
2023/09/29 06:59:43;;;;;;;11.15;5.88;;;17.80;99.90;;;;;;5000775;28;20017;-84
2023/09/29 07:02:09;;;;;;;9.10;6.32;;;17.80;99.90;;;;;;5000571;28;20037;-84
2023/09/29 07:04:36;;;;;;;10.43;6.13;;;17.90;99.90;;;;;;4993046;28;20030;-84
2023/09/29 07:07:01;;;;;;;11.70;5.82;;;17.80;99.90;;;;;;5012566;28;20033;-84
2023/09/29 07:09:28;;;;;;;10.88;6.35;;;17.80;99.90;;;;;;5024619;28;20761;-83
2023/09/29 07:11:54;;;;;;;10.93;6.53;;;17.80;99.90;;;;;;4997938;28;20030;-83
2023/09/29 07:14:20;;;;;;;9.40;6.07;;;17.80;99.90;;;;;;5005254;28;20139;-83
2023/09/29 07:16:49;;;;;;;11.02;6.40;;;17.80;99.90;;;;;;5011590;28;20025;-83
2023/09/29 07:19:16;;;;;;;11.27;5.97;;;17.80;99.90;;;;;;5003579;28;20124;-83
2023/09/29 07:21:42;;;;;;;11.27;6.32;;;17.70;99.90;;;;;;5000527;28;20072;-83
2023/09/29 07:24:08;;;;;;;12.35;5.68;;;17.70;99.90;;;;;;5021501;28;20029;-83
2023/09/29 07:26:34;;;;;;;12.10;5.88;;;17.60;99.90;;;;;;4991774;28;20045;-83
2023/09/29 07:29:01;;;;;;;7.70;5.90;;;17.60;99.90;;;;;;5008314;28;20111;-84
2023/09/29 07:31:38;;;;;;;12.50;6.30;;;17.80;99.90;;;;;;5012100;28;20025;-83
2023/09/29 07:34:04;;;;;;;9.77;6.28;;;17.90;99.90;;;;;;5012282;28;20029;-83
2023/09/29 07:36:33;;;;;;;10.30;4.97;;;18.10;99.90;;;;;;5013679;28;20034;-83
2023/09/29 07:38:59;;;;;;;11.43;5.97;;;18.30;99.90;;;;;;5005510;28;20026;-84
2023/09/29 07:41:25;;;;;;;11.63;5.95;;;18.50;99.90;;;;;;5029901;28;20079;-84
2023/09/29 07:43:51;;;;;;;9.73;6.07;;;18.70;99.90;;;;;;5005638;28;20025;-84
2023/09/29 07:46:16;;;;;;;10.38;5.45;;;18.80;99.90;;;;;;5028955;28;20394;-83
2023/09/29 07:48:42;;;;;;;10.63;5.65;;;18.80;99.90;;;;;;5007899;28;20037;-84
2023/09/29 07:51:08;;;;;;;12.38;6.15;;;18.80;99.90;;;;;;4997742;28;20030;-84
2023/09/29 07:53:34;;;;;;;9.95;5.57;;;19.00;99.90;;;;;;5013599;28;20052;-83
2023/09/29 07:56:00;;;;;;;9.60;5.82;;;19.10;99.90;;;;;;5009989;28;20037;-83
2023/09/29 07:58:25;;;;;;;13.43;5.43;;;19.50;99.90;;;;;;5034049;28;20480;-83
2023/09/29 08:00:51;;;;;;;10.48;5.50;;;19.60;99.90;;;;;;5010037;28;20047;-83
2023/09/29 08:03:17;;;;;;;8.90;4.85;;;19.80;99.90;;;;;;4999880;28;20488;-84
2023/09/29 08:05:42;;;;;;;11.20;5.68;;;19.90;99.90;;;;;;5012795;28;20463;-83
2023/09/29 08:08:08;;;;;;;9.85;5.40;;;19.90;99.90;;;;;;5015919;28;20079;-84
2023/09/29 08:10:34;;;;;;;6.38;4.53;;;19.90;99.90;;;;;;4986690;28;20613;-84
2023/09/29 08:12:59;;;;;;;9.25;5.40;;;19.90;99.90;;;;;;4992174;28;20041;-83
2023/09/29 08:15:25;;;;;;;13.43;5.95;;;20.00;99.90;;;;;;5026443;28;20032;-84
2023/09/29 08:17:51;;;;;;;8.10;5.57;;;19.80;99.90;;;;;;5023809;28;20113;-84
2023/09/29 08:20:18;;;;;;;9.23;5.22;;;19.80;99.90;;;;;;5010888;28;20064;-83
2023/09/29 08:22:44;;;;;;;8.40;5.03;;;19.80;99.90;;;;;;5029310;28;20025;-83
2023/09/29 08:25:11;;;;;;;14.57;5.35;;;19.90;99.90;;;;;;5014020;28;20060;-83
2023/09/29 08:27:37;;;;;;;9.60;5.63;;;20.10;99.90;;;;;;5033893;28;20080;-83
2023/09/29 08:30:04;;;;;;;12.32;5.35;;;20.40;99.90;;;;;;5016588;28;20520;-83
2023/09/29 08:32:30;;;;;;;12.45;4.97;;;20.80;99.90;;;;;;4999763;28;20033;-83
2023/09/29 08:34:56;;;;;;;9.25;5.20;;;21.00;99.90;;;;;;5016300;28;20028;-84
2023/09/29 08:37:22;;;;;;;22.52;8.50;;;21.10;99.90;;;;;;5012881;28;20397;-83
2023/09/29 08:39:50;;;;;;;8.52;4.88;;;21.10;99.90;;;;;;5012059;28;20808;-84
2023/09/29 08:42:38;;;;;;;11.50;5.55;;;21.00;99.90;;;;;;5003437;28;20037;-84
2023/09/29 08:45:09;;;;;;;8.32;5.30;;;20.50;99.90;;;;;;5019034;28;20038;-83
2023/09/29 08:47:40;;;;;;;11.15;5.95;;;20.20;99.90;;;;;;4999582;28;20620;-83
2023/09/29 08:50:08;;;;;;;13.82;6.32;;;20.00;99.90;;;;;;5004229;28;20402;-83
2023/09/29 08:52:35;;;;;;;9.70;5.75;;;19.70;99.90;;;;;;5012311;28;20025;-83
2023/09/29 08:55:04;;;;;;;10.52;5.93;;;19.50;99.90;;;;;;5007521;28;20065;-84
2023/09/29 08:57:30;;;;;;;13.10;5.97;;;19.50;99.90;;;;;;5012562;28;20041;-83
2023/09/29 08:59:58;;;;;;;9.55;5.40;;;19.50;99.90;;;;;;5005400;28;20033;-83
2023/09/29 09:02:26;;;;;;;9.55;5.28;;;19.70;99.90;;;;;;5027159;28;20041;-83
2023/09/29 09:04:53;;;;;;;10.43;5.88;;;19.80;99.90;;;;;;5010243;28;20102;-83
2023/09/29 09:07:19;;;;;;;9.15;5.53;;;19.90;99.90;;;;;;4996258;28;20045;-83
2023/09/29 09:09:50;;;;;;;12.15;5.47;;;19.80;99.90;;;;;;5012547;28;20025;-84
2023/09/29 09:12:16;;;;;;;12.35;5.60;;;20.00;99.90;;;;;;5018972;28;20041;-84
2023/09/29 09:14:44;;;;;;;8.40;5.53;;;20.50;99.90;;;;;;4998953;28;20114;-84
2023/09/29 09:17:11;;;;;;;10.50;5.60;;;21.20;99.90;;;;;;5024539;28;20041;-84
2023/09/29 09:19:43;;;;;;;11.82;5.90;;;21.40;99.90;;;;;;5006396;28;20474;-84
2023/09/29 09:22:25;;;;;;;12.38;5.47;;;22.10;99.90;;;;;;5014078;28;20405;-84
2023/09/29 09:24:57;;;;;;;7.22;4.40;;;22.90;99.90;;;;;;4998063;28;20029;-84
2023/09/29 09:27:23;;;;;;;10.00;4.38;;;24.00;99.90;;;;;;5018560;28;20038;-84
2023/09/29 09:29:48;;;;;;;10.40;5.30;;;24.80;99.90;;;;;;5006947;28;20033;-84
2023/09/29 09:32:14;;;;;;;12.75;5.47;;;25.10;99.90;;;;;;4994798;28;20430;-84
2023/09/29 09:34:41;;;;;;;13.52;5.38;;;25.60;99.90;;;;;;4992619;28;20057;-84
2023/09/29 09:37:41;;;;;;;10.35;4.70;;;25.70;99.90;;;;;;5020834;28;20032;-84
2023/09/29 09:40:09;;;;;;;11.40;4.85;;;25.80;99.90;;;;;;5011315;28;20044;-85
2023/09/29 09:42:35;;;;;;;11.90;5.28;;;26.20;99.90;;;;;;4990567;28;20033;-84
2023/09/29 09:45:00;;;;;;;6.38;4.25;;;25.80;99.90;;;;;;5004398;28;20030;-84
2023/09/29 09:47:26;;;;;;;10.93;4.97;;;26.10;99.90;;;;;;4996911;28;20045;-84
2023/09/29 09:49:55;;;;;;;7.30;4.05;;;26.50;99.90;;;;;;5010994;28;20485;-84
2023/09/29 09:52:42;;;;;;;10.75;4.07;;;26.20;99.90;;;;;;5004356;28;20025;-84
2023/09/29 09:55:13;;;;;;;9.65;4.00;;;25.60;99.90;;;;;;5002352;28;20032;-84
2023/09/29 09:57:43;;;;;;;5.55;4.03;;;24.80;99.90;;;;;;5010368;28;20115;-84
2023/09/29 10:00:13;;;;;;;9.65;4.25;;;24.30;99.90;;;;;;5005046;28;20033;-84
2023/09/29 10:02:41;;;;;;;4.50;3.80;;;23.90;99.90;;;;;;5007869;28;20041;-84
2023/09/29 10:05:17;;;;;;;8.30;4.60;;;23.90;99.90;;;;;;4998066;28;20038;-84
2023/09/29 10:07:51;;;;;;;8.00;4.03;;;23.80;99.90;;;;;;5016431;28;20679;-84
2023/09/29 10:10:32;;;;;;;8.90;4.63;;;24.00;99.90;;;;;;5009001;28;20025;-84
2023/09/29 10:13:01;;;;;;;8.55;4.10;;;24.20;99.90;;;;;;5009457;28;20116;-83
2023/09/29 10:15:29;;;;;;;10.13;4.30;;;24.30;99.90;;;;;;5013532;28;20129;-84
2023/09/29 10:18:13;;;;;;;10.40;4.50;;;24.80;99.90;;;;;;4992933;28;20106;-84
2023/09/29 10:20:39;;;;;;;8.35;4.40;;;25.70;99.90;;;;;;5004865;28;20041;-84
2023/09/29 10:23:06;;;;;;;7.13;4.40;;;25.90;99.90;;;;;;4998924;28;20053;-85
2023/09/29 10:25:39;;;;;;;5.72;4.28;;;25.80;99.90;;;;;;5010152;28;20053;-84
2023/09/29 10:28:17;;;;;;;6.70;3.80;;;25.60;99.90;;;;;;5010875;28;20038;-84
2023/09/29 10:34:32;;;;;;;12.70;4.30;;;25.30;99.90;;;;;;5018747;28;20072;-85
2023/09/29 10:36:58;;;;;;;10.15;4.63;;;25.50;99.90;;;;;;4996126;28;20029;-84
2023/09/29 10:39:26;;;;;;;8.05;4.13;;;25.40;99.90;;;;;;5003875;28;20026;-84
2023/09/29 10:42:04;;;;;;;10.27;4.18;;;25.20;99.90;;;;;;5011228;28;20025;-85
2023/09/29 10:44:30;;;;;;;8.25;4.88;;;25.50;99.90;;;;;;5020774;28;20104;-84
2023/09/29 10:46:56;;;;;;;9.43;4.70;;;25.80;99.90;;;;;;5009685;28;20129;-84
2023/09/29 10:49:32;;;;;;;6.63;4.40;;;25.80;99.90;;;;;;4995193;28;20089;-85
2023/09/29 10:51:58;;;;;;;8.13;3.90;;;25.90;99.90;;;;;;5012607;28;20447;-84
2023/09/29 10:54:24;;;;;;;8.40;4.63;;;25.70;99.90;;;;;;5008829;28;20109;-85
2023/09/29 10:56:50;;;;;;;7.35;4.63;;;25.50;99.90;;;;;;5004495;28;20024;-85
2023/09/29 10:59:15;;;;;;;9.82;5.28;;;25.20;99.90;;;;;;5014177;28;20026;-84
2023/09/29 11:01:44;;;;;;;11.40;4.97;;;25.00;99.90;;;;;;4999094;28;20389;-85
2023/09/29 11:04:10;;;;;;;11.88;4.80;;;25.00;99.90;;;;;;5013801;28;20063;-85
2023/09/29 11:06:49;;;;;;;9.35;4.95;;;24.70;99.90;;;;;;5004961;28;20026;-85
2023/09/29 11:09:28;;;;;;;7.35;4.72;;;25.00;99.90;;;;;;5005890;28;20727;-85
2023/09/29 11:11:54;;;;;;;17.85;5.85;;;25.20;99.90;;;;;;5002832;28;20358;-84
2023/09/29 11:14:19;;;;;;;7.70;4.57;;;25.00;99.90;;;;;;5012096;28;20120;-85
2023/09/29 11:16:56;;;;;;;9.82;4.60;;;25.40;99.90;;;;;;4997367;28;20400;-85
2023/09/29 11:19:25;;;;;;;11.82;4.97;;;25.80;99.90;;;;;;5032409;28;20078;-85
2023/09/29 11:21:50;;;;;;;6.53;4.18;;;26.60;99.90;;;;;;4992564;28;20044;-85
2023/09/29 11:24:19;;;;;;;7.00;4.20;;;27.30;99.90;;;;;;5013391;28;20026;-85
2023/09/29 11:26:46;;;;;;;5.00;3.67;;;27.80;99.90;;;;;;5024657;28;20824;-85
2023/09/29 11:29:22;;;;;;;5.70;4.60;;;27.90;99.90;;;;;;5029367;28;20726;-85
2023/09/29 11:31:53;;;;;;;9.30;4.63;;;27.00;99.90;;;;;;5007425;28;20651;-85
2023/09/29 11:34:19;;;;;;;9.88;4.30;;;26.20;99.90;;;;;;5023418;28;20041;-84
2023/09/29 11:36:45;;;;;;;13.63;4.30;;;26.10;99.90;;;;;;5011291;28;20030;-84
2023/09/29 11:39:17;;;;;;;8.38;4.07;;;26.20;99.90;;;;;;5012938;28;20367;-84
2023/09/29 11:41:43;;;;;;;7.13;4.25;;;26.10;99.90;;;;;;5004267;28;20089;-85
2023/09/29 11:44:08;;;;;;;6.20;4.00;;;26.50;99.90;;;;;;4998027;28;20199;-84
2023/09/29 11:46:35;;;;;;;9.60;4.50;;;26.80;99.90;;;;;;5016337;28;20068;-85
2023/09/29 11:49:02;;;;;;;7.78;4.43;;;27.00;99.90;;;;;;4996952;28;20029;-85
2023/09/29 11:51:28;;;;;;;8.77;4.35;;;26.80;99.90;;;;;;5031881;28;20048;-84
2023/09/29 11:53:54;;;;;;;9.38;4.45;;;26.90;99.90;;;;;;5022567;28;20478;-85
2023/09/29 11:56:20;;;;;;;12.63;4.50;;;27.00;99.90;;;;;;5006803;28;20787;-85
2023/09/29 11:58:46;;;;;;;5.10;4.10;;;26.30;99.90;;;;;;4999322;28;20481;-84
2023/09/29 12:01:13;;;;;;;9.48;4.22;;;25.90;99.90;;;;;;4996688;28;20037;-84
2023/09/29 12:03:40;;;;;;;10.63;4.95;;;25.20;99.90;;;;;;5011244;28;20120;-84
2023/09/29 12:06:05;;;;;;;8.35;4.50;;;25.00;99.90;;;;;;5022350;28;20032;-84
2023/09/29 12:08:31;;;;;;;5.95;4.07;;;24.90;99.90;;;;;;5009244;28;20021;-84
2023/09/29 12:10:58;;;;;;;11.40;4.07;;;24.90;99.90;;;;;;5008248;28;20116;-84
2023/09/29 12:13:25;;;;;;;12.82;4.15;;;24.90;99.90;;;;;;5004994;28;20042;-84
2023/09/29 12:15:51;;;;;;;8.50;4.47;;;25.20;99.90;;;;;;4997273;28;20048;-84
2023/09/29 12:18:17;;;;;;;8.07;4.22;;;25.50;99.90;;;;;;4999031;28;20105;-84
2023/09/29 12:20:43;;;;;;;18.52;5.30;;;25.70;99.90;;;;;;5023413;28;20069;-84
2023/09/29 12:23:08;;;;;;;11.77;4.93;;;25.50;99.90;;;;;;4997827;28;20143;-84
2023/09/29 12:25:35;;;;;;;9.65;4.60;;;25.50;99.90;;;;;;5024813;28;20101;-84
2023/09/29 12:28:03;;;;;;;13.02;4.90;;;25.40;99.90;;;;;;5002755;28;20509;-85
2023/09/29 12:30:29;;;;;;;9.07;4.13;;;25.20;99.90;;;;;;5010173;28;20026;-84
2023/09/29 12:32:55;;;;;;;13.55;5.07;;;24.80;99.90;;;;;;5009146;28;20474;-84
2023/09/29 12:35:21;;;;;;;10.07;4.80;;;24.80;99.90;;;;;;4995687;28;20041;-85
2023/09/29 12:37:47;;;;;;;10.25;4.50;;;24.70;99.90;;;;;;5021832;28;20030;-85
2023/09/29 12:40:14;;;;;;;7.30;4.32;;;24.90;99.90;;;;;;5014755;28;20073;-84
2023/09/29 12:42:49;;;;;;;13.57;4.88;;;25.00;99.90;;;;;;5023700;28;20057;-84